Harrisonburg, VA (22802)

3:50 AM EST on February 07, 2016 (GMT -0500)
Singers Glen FD | | Change Station
CLOSE
Current Station
Personal Weather Station
Location: Harrisonburg, VA
Elevation: 1621 ft
Nearby Weather Stations

Elev 1621 ft 38.55 °N, 78.92 °W | Updated 5 seconds ago

Clear
Clear
25.3 °F
Feels Like 25 °F
N
0.0
Wind Variable Wind from SW
Gusts 0.0 mph

Today
High -- | Low -- °F
--% Chance of Precip.
Yesterday
High -- | Low -- °F
Precip. -- in
Pressure 30.19 in
Visibility 10.0 miles
Clouds Clear
Windchill 25 °F
Dew Point 20 °F
Humidity 79%
Rainfall 0.00 in
Snow Depth Not available.
7:15 AM 5:44 PM
Waning Crescent, 2% visible
METAR KSHD 070835Z AUTO 00000KT 10SM CLR M03/M05 A3019 RMK AO2 T10291048
Pressure 30.19 in
Visibility 10.0 miles
Clouds Clear
Windchill 25 °F
Dew Point 20 °F
Humidity 79%
Rainfall 0.00 in
Snow Depth Not available.
7:15 AM 5:44 PM
Waning Crescent, 2% visible
METAR KSHD 070835Z AUTO 00000KT 10SM CLR M03/M05 A3019 RMK AO2 T10291048

10-Day Weather Forecast

Almanac

Astronomy

Feb. 07, 2016 Rise Set
Actual Time
Civil Twilight
Nautical Twilight
Astronomical Twilight
Moon
Length of Visible Light
Length of Day
Tomorrow will be .
, % of the Moon is Illuminated

Today's Extremes

State Highs State Lows

Community

WunderPhotos

Upload Photos

1,891,171 photos uploaded!

WunderBlog® & News

Nearby

Air Quality

  Air Quality AQ Index Pollutant
Not available.

Snow Depth

Station Depth Elevation

Earthquake Activity

City Distance Mag. Time & Date
Minimum magnitude displayed is 2.5.

Coastal Water Temperatures

Place Temperature

Stations

Nearby Weather Stations

Station Location Temp. Windchill Dew Point Humidity Wind Precip. Elev Updated Type
                   

Watches & Warnings

There are currently no watches in effect.